sensor_id;sensor_type;location;lat;lon;timestamp;P1;P2;P0
62054;PMS5003;48653;51.742;-1.256;2023-06-22T00:01:47;8;8;
62054;PMS5003;48653;51.742;-1.256;2023-06-22T00:04:12;8;7;
62054;PMS5003;48653;51.742;-1.256;2023-06-22T00:06:37;7;7;
62054;PMS5003;48653;51.742;-1.256;2023-06-22T00:09:02;8;6;
62054;PMS5003;48653;51.742;-1.256;2023-06-22T00:11:27;10;9;
62054;PMS5003;48653;51.742;-1.256;2023-06-22T00:13:52;8;8;
62054;PMS5003;48653;51.742;-1.256;2023-06-22T00:16:17;9;9;
62054;PMS5003;48653;51.742;-1.256;2023-06-22T00:18:43;9;9;
62054;PMS5003;48653;51.742;-1.256;2023-06-22T00:21:08;7;7;
62054;PMS5003;48653;51.742;-1.256;2023-06-22T00:23:33;11;9;
62054;PMS5003;48653;51.742;-1.256;2023-06-22T00:25:59;8;7;
62054;PMS5003;48653;51.742;-1.256;2023-06-22T00:28:24;9;7;
62054;PMS5003;48653;51.742;-1.256;2023-06-22T00:30:49;9;8;
62054;PMS5003;48653;51.742;-1.256;2023-06-22T00:33:14;8;8;
62054;PMS5003;48653;51.742;-1.256;2023-06-22T00:35:39;8;8;
62054;PMS5003;48653;51.742;-1.256;2023-06-22T00:38:04;10;8;
62054;PMS5003;48653;51.742;-1.256;2023-06-22T00:40:30;9;9;
62054;PMS5003;48653;51.742;-1.256;2023-06-22T00:42:55;10;8;
62054;PMS5003;48653;51.742;-1.256;2023-06-22T00:45:20;10;9;
62054;PMS5003;48653;51.742;-1.256;2023-06-22T00:47:45;11;11;
62054;PMS5003;48653;51.742;-1.256;2023-06-22T00:50:10;10;10;
62054;PMS5003;48653;51.742;-1.256;2023-06-22T00:52:36;12;11;
62054;PMS5003;48653;51.742;-1.256;2023-06-22T00:55:02;12;10;
62054;PMS5003;48653;51.742;-1.256;2023-06-22T00:57:26;13;10;
62054;PMS5003;48653;51.742;-1.256;2023-06-22T00:59:51;10;10;
62054;PMS5003;48653;51.742;-1.256;2023-06-22T01:02:17;9;9;
62054;PMS5003;48653;51.742;-1.256;2023-06-22T01:04:42;9;8;
62054;PMS5003;48653;51.742;-1.256;2023-06-22T01:07:10;11;11;
62054;PMS5003;48653;51.742;-1.256;2023-06-22T01:09:33;15;12;
62054;PMS5003;48653;51.742;-1.256;2023-06-22T01:11:59;11;11;
62054;PMS5003;48653;51.742;-1.256;2023-06-22T01:14:24;11;10;
62054;PMS5003;48653;51.742;-1.256;2023-06-22T01:16:48;12;12;
62054;PMS5003;48653;51.742;-1.256;2023-06-22T01:19:18;12;11;
62054;PMS5003;48653;51.742;-1.256;2023-06-22T01:21:38;11;8;
62054;PMS5003;48653;51.742;-1.256;2023-06-22T01:24:08;12;12;
62054;PMS5003;48653;51.742;-1.256;2023-06-22T01:26:32;9;9;
62054;PMS5003;48653;51.742;-1.256;2023-06-22T01:28:54;9;8;
62054;PMS5003;48653;51.742;-1.256;2023-06-22T01:31:20;13;11;
62054;PMS5003;48653;51.742;-1.256;2023-06-22T01:33:45;11;11;
62054;PMS5003;48653;51.742;-1.256;2023-06-22T01:36:10;10;8;
62054;PMS5003;48653;51.742;-1.256;2023-06-22T01:38:35;9;9;
62054;PMS5003;48653;51.742;-1.256;2023-06-22T01:41:01;11;10;
62054;PMS5003;48653;51.742;-1.256;2023-06-22T01:43:26;11;11;
62054;PMS5003;48653;51.742;-1.256;2023-06-22T01:45:51;8;8;
62054;PMS5003;48653;51.742;-1.256;2023-06-22T01:48:16;10;8;
62054;PMS5003;48653;51.742;-1.256;2023-06-22T01:50:42;13;10;
62054;PMS5003;48653;51.742;-1.256;2023-06-22T01:53:07;17;15;
62054;PMS5003;48653;51.742;-1.256;2023-06-22T01:55:32;11;10;
62054;PMS5003;48653;51.742;-1.256;2023-06-22T01:57:57;9;9;
62054;PMS5003;48653;51.742;-1.256;2023-06-22T02:00:23;14;11;
62054;PMS5003;48653;51.742;-1.256;2023-06-22T02:02:49;14;14;
62054;PMS5003;48653;51.742;-1.256;2023-06-22T02:05:15;16;14;
62054;PMS5003;48653;51.742;-1.256;2023-06-22T02:07:41;12;11;
62054;PMS5003;48653;51.742;-1.256;2023-06-22T02:10:05;12;11;
62054;PMS5003;48653;51.742;-1.256;2023-06-22T02:12:30;10;10;
62054;PMS5003;48653;51.742;-1.256;2023-06-22T02:14:56;10;8;
62054;PMS5003;48653;51.742;-1.256;2023-06-22T02:17:21;11;9;
62054;PMS5003;48653;51.742;-1.256;2023-06-22T02:19:46;14;12;
62054;PMS5003;48653;51.742;-1.256;2023-06-22T02:22:11;12;11;
62054;PMS5003;48653;51.742;-1.256;2023-06-22T02:24:36;8;8;
62054;PMS5003;48653;51.742;-1.256;2023-06-22T02:27:01;11;11;
62054;PMS5003;48653;51.742;-1.256;2023-06-22T02:29:26;13;11;
62054;PMS5003;48653;51.742;-1.256;2023-06-22T02:31:52;8;8;
62054;PMS5003;48653;51.742;-1.256;2023-06-22T02:34:17;11;11;
62054;PMS5003;48653;51.742;-1.256;2023-06-22T02:36:42;13;11;
62054;PMS5003;48653;51.742;-1.256;2023-06-22T02:39:08;11;9;
62054;PMS5003;48653;51.742;-1.256;2023-06-22T02:41:33;14;11;
62054;PMS5003;48653;51.742;-1.256;2023-06-22T02:43:58;13;12;
62054;PMS5003;48653;51.742;-1.256;2023-06-22T02:46:23;12;12;
62054;PMS5003;48653;51.742;-1.256;2023-06-22T02:48:49;15;11;
62054;PMS5003;48653;51.742;-1.256;2023-06-22T02:51:14;9;9;
62054;PMS5003;48653;51.742;-1.256;2023-06-22T02:53:39;8;8;
62054;PMS5003;48653;51.742;-1.256;2023-06-22T02:56:04;11;11;
62054;PMS5003;48653;51.742;-1.256;2023-06-22T02:58:29;8;8;
62054;PMS5003;48653;51.742;-1.256;2023-06-22T03:00:54;13;13;
62054;PMS5003;48653;51.742;-1.256;2023-06-22T03:03:20;14;10;
62054;PMS5003;48653;51.742;-1.256;2023-06-22T03:05:45;10;9;
62054;PMS5003;48653;51.742;-1.256;2023-06-22T03:08:10;14;13;
62054;PMS5003;48653;51.742;-1.256;2023-06-22T03:10:36;12;12;
62054;PMS5003;48653;51.742;-1.256;2023-06-22T03:13:01;14;14;
62054;PMS5003;48653;51.742;-1.256;2023-06-22T03:15:27;12;11;
62054;PMS5003;48653;51.742;-1.256;2023-06-22T03:17:52;9;8;
62054;PMS5003;48653;51.742;-1.256;2023-06-22T03:20:17;10;10;
62054;PMS5003;48653;51.742;-1.256;2023-06-22T03:22:42;10;10;
62054;PMS5003;48653;51.742;-1.256;2023-06-22T03:25:08;16;12;
62054;PMS5003;48653;51.742;-1.256;2023-06-22T03:27:32;13;12;
62054;PMS5003;48653;51.742;-1.256;2023-06-22T03:29:58;11;11;
62054;PMS5003;48653;51.742;-1.256;2023-06-22T03:32:23;12;11;
62054;PMS5003;48653;51.742;-1.256;2023-06-22T03:34:49;14;12;
62054;PMS5003;48653;51.742;-1.256;2023-06-22T03:37:15;14;11;
62054;PMS5003;48653;51.742;-1.256;2023-06-22T03:39:40;9;8;
62054;PMS5003;48653;51.742;-1.256;2023-06-22T03:42:05;11;11;
62054;PMS5003;48653;51.742;-1.256;2023-06-22T03:44:30;10;9;
62054;PMS5003;48653;51.742;-1.256;2023-06-22T03:46:56;14;12;
62054;PMS5003;48653;51.742;-1.256;2023-06-22T03:49:20;12;12;
62054;PMS5003;48653;51.742;-1.256;2023-06-22T03:51:45;10;10;
62054;PMS5003;48653;51.742;-1.256;2023-06-22T03:54:10;12;11;
62054;PMS5003;48653;51.742;-1.256;2023-06-22T03:56:35;14;14;
62054;PMS5003;48653;51.742;-1.256;2023-06-22T03:59:01;12;12;
62054;PMS5003;48653;51.742;-1.256;2023-06-22T04:01:26;10;10;
62054;PMS5003;48653;51.742;-1.256;2023-06-22T04:03:51;14;13;
62054;PMS5003;48653;51.742;-1.256;2023-06-22T04:06:17;11;9;
62054;PMS5003;48653;51.742;-1.256;2023-06-22T04:08:42;10;10;
62054;PMS5003;48653;51.742;-1.256;2023-06-22T04:11:07;14;13;
62054;PMS5003;48653;51.742;-1.256;2023-06-22T04:13:32;12;12;
62054;PMS5003;48653;51.742;-1.256;2023-06-22T04:15:58;14;14;
62054;PMS5003;48653;51.742;-1.256;2023-06-22T04:18:23;14;14;
62054;PMS5003;48653;51.742;-1.256;2023-06-22T04:20:48;12;11;
62054;PMS5003;48653;51.742;-1.256;2023-06-22T04:23:14;14;13;
62054;PMS5003;48653;51.742;-1.256;2023-06-22T04:25:39;16;14;
62054;PMS5003;48653;51.742;-1.256;2023-06-22T04:28:04;11;10;
62054;PMS5003;48653;51.742;-1.256;2023-06-22T04:30:30;11;11;
62054;PMS5003;48653;51.742;-1.256;2023-06-22T04:32:55;13;13;
62054;PMS5003;48653;51.742;-1.256;2023-06-22T04:35:20;13;11;
62054;PMS5003;48653;51.742;-1.256;2023-06-22T04:37:45;16;10;
62054;PMS5003;48653;51.742;-1.256;2023-06-22T04:40:11;14;13;
62054;PMS5003;48653;51.742;-1.256;2023-06-22T04:42:37;15;11;
62054;PMS5003;48653;51.742;-1.256;2023-06-22T04:45:01;16;14;
62054;PMS5003;48653;51.742;-1.256;2023-06-22T04:47:26;13;13;
62054;PMS5003;48653;51.742;-1.256;2023-06-22T04:49:51;8;8;
62054;PMS5003;48653;51.742;-1.256;2023-06-22T04:52:17;18;17;
62054;PMS5003;48653;51.742;-1.256;2023-06-22T04:54:43;18;15;
62054;PMS5003;48653;51.742;-1.256;2023-06-22T04:57:08;11;9;
62054;PMS5003;48653;51.742;-1.256;2023-06-22T04:59:33;15;14;
62054;PMS5003;48653;51.742;-1.256;2023-06-22T05:01:59;13;12;
62054;PMS5003;48653;51.742;-1.256;2023-06-22T05:04:24;11;11;
62054;PMS5003;48653;51.742;-1.256;2023-06-22T05:06:49;16;14;
62054;PMS5003;48653;51.742;-1.256;2023-06-22T05:09:14;15;14;
62054;PMS5003;48653;51.742;-1.256;2023-06-22T05:11:40;16;14;
62054;PMS5003;48653;51.742;-1.256;2023-06-22T05:14:05;17;16;
62054;PMS5003;48653;51.742;-1.256;2023-06-22T05:16:31;15;15;
62054;PMS5003;48653;51.742;-1.256;2023-06-22T05:18:56;18;18;
62054;PMS5003;48653;51.742;-1.256;2023-06-22T05:21:22;21;19;
62054;PMS5003;48653;51.742;-1.256;2023-06-22T05:23:47;20;19;
62054;PMS5003;48653;51.742;-1.256;2023-06-22T05:26:13;19;17;
62054;PMS5003;48653;51.742;-1.256;2023-06-22T05:28:38;22;19;
62054;PMS5003;48653;51.742;-1.256;2023-06-22T05:31:04;20;18;
62054;PMS5003;48653;51.742;-1.256;2023-06-22T05:33:29;23;20;
62054;PMS5003;48653;51.742;-1.256;2023-06-22T05:35:55;27;22;
62054;PMS5003;48653;51.742;-1.256;2023-06-22T05:38:21;21;21;
62054;PMS5003;48653;51.742;-1.256;2023-06-22T05:40:46;18;17;
62054;PMS5003;48653;51.742;-1.256;2023-06-22T05:43:11;20;20;
62054;PMS5003;48653;51.742;-1.256;2023-06-22T05:45:37;24;21;
62054;PMS5003;48653;51.742;-1.256;2023-06-22T05:48:02;17;17;
62054;PMS5003;48653;51.742;-1.256;2023-06-22T05:50:27;16;16;
62054;PMS5003;48653;51.742;-1.256;2023-06-22T05:52:53;15;15;
62054;PMS5003;48653;51.742;-1.256;2023-06-22T05:55:18;21;18;
62054;PMS5003;48653;51.742;-1.256;2023-06-22T05:57:44;21;19;
62054;PMS5003;48653;51.742;-1.256;2023-06-22T06:00:10;22;20;
62054;PMS5003;48653;51.742;-1.256;2023-06-22T06:02:35;22;18;
62054;PMS5003;48653;51.742;-1.256;2023-06-22T06:05:01;21;21;
62054;PMS5003;48653;51.742;-1.256;2023-06-22T06:07:26;20;17;
62054;PMS5003;48653;51.742;-1.256;2023-06-22T06:09:52;19;18;
62054;PMS5003;48653;51.742;-1.256;2023-06-22T06:12:18;21;18;
62054;PMS5003;48653;51.742;-1.256;2023-06-22T06:14:43;19;18;
62054;PMS5003;48653;51.742;-1.256;2023-06-22T06:17:09;20;17;
62054;PMS5003;48653;51.742;-1.256;2023-06-22T06:19:34;20;15;
62054;PMS5003;48653;51.742;-1.256;2023-06-22T06:21:59;24;21;
62054;PMS5003;48653;51.742;-1.256;2023-06-22T06:24:25;17;16;
62054;PMS5003;48653;51.742;-1.256;2023-06-22T06:26:50;20;18;
62054;PMS5003;48653;51.742;-1.256;2023-06-22T06:29:15;18;15;
62054;PMS5003;48653;51.742;-1.256;2023-06-22T06:31:41;21;19;
62054;PMS5003;48653;51.742;-1.256;2023-06-22T06:34:06;26;22;
62054;PMS5003;48653;51.742;-1.256;2023-06-22T06:36:31;20;17;
62054;PMS5003;48653;51.742;-1.256;2023-06-22T06:38:57;19;17;
62054;PMS5003;48653;51.742;-1.256;2023-06-22T06:41:23;20;18;
62054;PMS5003;48653;51.742;-1.256;2023-06-22T06:43:48;20;18;
62054;PMS5003;48653;51.742;-1.256;2023-06-22T06:46:13;18;14;
62054;PMS5003;48653;51.742;-1.256;2023-06-22T06:48:39;19;17;
62054;PMS5003;48653;51.742;-1.256;2023-06-22T06:51:04;22;18;
62054;PMS5003;48653;51.742;-1.256;2023-06-22T06:53:29;20;17;
62054;PMS5003;48653;51.742;-1.256;2023-06-22T06:55:55;14;14;
62054;PMS5003;48653;51.742;-1.256;2023-06-22T06:58:21;22;19;
62054;PMS5003;48653;51.742;-1.256;2023-06-22T07:00:46;18;17;
62054;PMS5003;48653;51.742;-1.256;2023-06-22T07:03:12;20;16;
62054;PMS5003;48653;51.742;-1.256;2023-06-22T07:05:38;26;21;
62054;PMS5003;48653;51.742;-1.256;2023-06-22T07:08:03;16;14;
62054;PMS5003;48653;51.742;-1.256;2023-06-22T07:10:28;15;15;
62054;PMS5003;48653;51.742;-1.256;2023-06-22T07:12:54;16;16;
62054;PMS5003;48653;51.742;-1.256;2023-06-22T07:15:19;21;16;
62054;PMS5003;48653;51.742;-1.256;2023-06-22T07:17:45;13;12;
62054;PMS5003;48653;51.742;-1.256;2023-06-22T07:20:11;15;15;
62054;PMS5003;48653;51.742;-1.256;2023-06-22T07:22:36;18;15;
62054;PMS5003;48653;51.742;-1.256;2023-06-22T07:25:01;21;20;
62054;PMS5003;48653;51.742;-1.256;2023-06-22T07:27:26;18;18;
62054;PMS5003;48653;51.742;-1.256;2023-06-22T07:29:52;17;17;
62054;PMS5003;48653;51.742;-1.256;2023-06-22T07:32:18;12;11;
62054;PMS5003;48653;51.742;-1.256;2023-06-22T07:34:43;15;15;
62054;PMS5003;48653;51.742;-1.256;2023-06-22T07:37:09;17;17;
62054;PMS5003;48653;51.742;-1.256;2023-06-22T07:39:34;14;14;
62054;PMS5003;48653;51.742;-1.256;2023-06-22T07:41:59;14;12;
62054;PMS5003;48653;51.742;-1.256;2023-06-22T07:44:25;19;17;
62054;PMS5003;48653;51.742;-1.256;2023-06-22T07:46:51;14;12;
62054;PMS5003;48653;51.742;-1.256;2023-06-22T07:49:16;15;14;
62054;PMS5003;48653;51.742;-1.256;2023-06-22T07:51:41;13;13;
62054;PMS5003;48653;51.742;-1.256;2023-06-22T07:54:06;11;10;
62054;PMS5003;48653;51.742;-1.256;2023-06-22T07:56:31;11;11;
62054;PMS5003;48653;51.742;-1.256;2023-06-22T07:58:56;12;10;
62054;PMS5003;48653;51.742;-1.256;2023-06-22T08:01:21;12;11;
62054;PMS5003;48653;51.742;-1.256;2023-06-22T08:03:47;13;13;
62054;PMS5003;48653;51.742;-1.256;2023-06-22T08:06:12;13;11;
62054;PMS5003;48653;51.742;-1.256;2023-06-22T08:08:37;14;10;
62054;PMS5003;48653;51.742;-1.256;2023-06-22T08:11:03;11;10;
62054;PMS5003;48653;51.742;-1.256;2023-06-22T08:13:28;12;11;
62054;PMS5003;48653;51.742;-1.256;2023-06-22T08:15:53;8;8;
62054;PMS5003;48653;51.742;-1.256;2023-06-22T08:18:19;12;9;
62054;PMS5003;48653;51.742;-1.256;2023-06-22T08:20:43;10;10;
62054;PMS5003;48653;51.742;-1.256;2023-06-22T08:23:09;8;7;
62054;PMS5003;48653;51.742;-1.256;2023-06-22T08:25:34;10;10;
62054;PMS5003;48653;51.742;-1.256;2023-06-22T08:27:59;12;9;
62054;PMS5003;48653;51.742;-1.256;2023-06-22T08:30:24;10;10;
62054;PMS5003;48653;51.742;-1.256;2023-06-22T08:32:49;11;9;
62054;PMS5003;48653;51.742;-1.256;2023-06-22T08:35:14;8;8;
62054;PMS5003;48653;51.742;-1.256;2023-06-22T08:37:40;9;9;
62054;PMS5003;48653;51.742;-1.256;2023-06-22T08:40:05;7;5;
62054;PMS5003;48653;51.742;-1.256;2023-06-22T08:42:30;5;5;
62054;PMS5003;48653;51.742;-1.256;2023-06-22T08:44:55;15;14;
62054;PMS5003;48653;51.742;-1.256;2023-06-22T08:47:20;8;8;
62054;PMS5003;48653;51.742;-1.256;2023-06-22T08:49:45;11;8;
62054;PMS5003;48653;51.742;-1.256;2023-06-22T08:52:10;7;7;
62054;PMS5003;48653;51.742;-1.256;2023-06-22T08:54:35;10;10;
62054;PMS5003;48653;51.742;-1.256;2023-06-22T08:57:00;9;8;
62054;PMS5003;48653;51.742;-1.256;2023-06-22T08:59:25;9;8;
62054;PMS5003;48653;51.742;-1.256;2023-06-22T09:01:50;13;9;
62054;PMS5003;48653;51.742;-1.256;2023-06-22T09:04:15;7;7;
62054;PMS5003;48653;51.742;-1.256;2023-06-22T09:06:41;7;7;
62054;PMS5003;48653;51.742;-1.256;2023-06-22T09:09:05;8;8;
62054;PMS5003;48653;51.742;-1.256;2023-06-22T09:11:30;8;8;
62054;PMS5003;48653;51.742;-1.256;2023-06-22T09:13:56;8;6;
62054;PMS5003;48653;51.742;-1.256;2023-06-22T09:16:20;9;8;
62054;PMS5003;48653;51.742;-1.256;2023-06-22T09:18:46;8;6;
62054;PMS5003;48653;51.742;-1.256;2023-06-22T09:21:12;11;8;
62054;PMS5003;48653;51.742;-1.256;2023-06-22T09:23:37;10;8;
62054;PMS5003;48653;51.742;-1.256;2023-06-22T09:26:02;7;6;
62054;PMS5003;48653;51.742;-1.256;2023-06-22T09:28:27;8;6;
62054;PMS5003;48653;51.742;-1.256;2023-06-22T09:30:52;7;7;
62054;PMS5003;48653;51.742;-1.256;2023-06-22T09:33:18;9;9;
62054;PMS5003;48653;51.742;-1.256;2023-06-22T09:35:43;11;8;
62054;PMS5003;48653;51.742;-1.256;2023-06-22T09:38:08;10;9;
62054;PMS5003;48653;51.742;-1.256;2023-06-22T09:40:33;9;8;
62054;PMS5003;48653;51.742;-1.256;2023-06-22T09:42:58;9;7;
62054;PMS5003;48653;51.742;-1.256;2023-06-22T09:45:23;8;7;
62054;PMS5003;48653;51.742;-1.256;2023-06-22T09:47:48;8;8;
62054;PMS5003;48653;51.742;-1.256;2023-06-22T09:50:13;8;8;
62054;PMS5003;48653;51.742;-1.256;2023-06-22T09:52:38;9;9;
62054;PMS5003;48653;51.742;-1.256;2023-06-22T09:55:04;8;8;
62054;PMS5003;48653;51.742;-1.256;2023-06-22T09:57:28;10;8;
62054;PMS5003;48653;51.742;-1.256;2023-06-22T09:59:54;9;7;
62054;PMS5003;48653;51.742;-1.256;2023-06-22T10:02:19;7;7;
62054;PMS5003;48653;51.742;-1.256;2023-06-22T10:04:44;6;3;
62054;PMS5003;48653;51.742;-1.256;2023-06-22T10:07:09;7;6;
62054;PMS5003;48653;51.742;-1.256;2023-06-22T10:09:34;8;8;
62054;PMS5003;48653;51.742;-1.256;2023-06-22T10:11:59;6;6;
62054;PMS5003;48653;51.742;-1.256;2023-06-22T10:14:24;5;5;
62054;PMS5003;48653;51.742;-1.256;2023-06-22T10:16:49;6;6;
62054;PMS5003;48653;51.742;-1.256;2023-06-22T10:19:14;5;5;
62054;PMS5003;48653;51.742;-1.256;2023-06-22T10:21:39;5;5;
62054;PMS5003;48653;51.742;-1.256;2023-06-22T10:24:04;7;5;
62054;PMS5003;48653;51.742;-1.256;2023-06-22T10:26:29;7;6;
62054;PMS5003;48653;51.742;-1.256;2023-06-22T10:28:54;7;6;
62054;PMS5003;48653;51.742;-1.256;2023-06-22T10:31:19;9;8;
62054;PMS5003;48653;51.742;-1.256;2023-06-22T10:33:44;5;4;
62054;PMS5003;48653;51.742;-1.256;2023-06-22T10:36:10;6;5;
62054;PMS5003;48653;51.742;-1.256;2023-06-22T10:38:34;5;5;
62054;PMS5003;48653;51.742;-1.256;2023-06-22T10:40:59;6;6;
62054;PMS5003;48653;51.742;-1.256;2023-06-22T10:43:24;6;6;
62054;PMS5003;48653;51.742;-1.256;2023-06-22T10:45:49;6;6;
62054;PMS5003;48653;51.742;-1.256;2023-06-22T10:48:14;7;7;
62054;PMS5003;48653;51.742;-1.256;2023-06-22T10:50:40;4;4;
62054;PMS5003;48653;51.742;-1.256;2023-06-22T10:53:04;6;5;
62054;PMS5003;48653;51.742;-1.256;2023-06-22T10:55:29;6;6;
62054;PMS5003;48653;51.742;-1.256;2023-06-22T10:57:55;4;4;
62054;PMS5003;48653;51.742;-1.256;2023-06-22T11:00:20;5;5;
62054;PMS5003;48653;51.742;-1.256;2023-06-22T11:02:45;6;6;
62054;PMS5003;48653;51.742;-1.256;2023-06-22T11:05:10;10;8;
62054;PMS5003;48653;51.742;-1.256;2023-06-22T11:07:36;6;6;
62054;PMS5003;48653;51.742;-1.256;2023-06-22T11:10:01;9;8;
62054;PMS5003;48653;51.742;-1.256;2023-06-22T11:12:27;6;6;
62054;PMS5003;48653;51.742;-1.256;2023-06-22T11:14:51;6;5;
62054;PMS5003;48653;51.742;-1.256;2023-06-22T11:17:17;8;8;
62054;PMS5003;48653;51.742;-1.256;2023-06-22T11:19:42;3;3;
62054;PMS5003;48653;51.742;-1.256;2023-06-22T11:22:07;7;7;
62054;PMS5003;48653;51.742;-1.256;2023-06-22T11:24:32;4;4;
62054;PMS5003;48653;51.742;-1.256;2023-06-22T11:26:57;8;5;
62054;PMS5003;48653;51.742;-1.256;2023-06-22T11:29:22;7;7;
62054;PMS5003;48653;51.742;-1.256;2023-06-22T11:31:47;4;4;
62054;PMS5003;48653;51.742;-1.256;2023-06-22T11:34:12;6;5;
62054;PMS5003;48653;51.742;-1.256;2023-06-22T11:36:37;7;7;
62054;PMS5003;48653;51.742;-1.256;2023-06-22T11:39:02;4;4;
62054;PMS5003;48653;51.742;-1.256;2023-06-22T11:41:27;8;6;
62054;PMS5003;48653;51.742;-1.256;2023-06-22T11:43:52;6;5;
62054;PMS5003;48653;51.742;-1.256;2023-06-22T11:46:17;5;5;
62054;PMS5003;48653;51.742;-1.256;2023-06-22T11:48:42;7;5;
62054;PMS5003;48653;51.742;-1.256;2023-06-22T11:51:08;5;5;
62054;PMS5003;48653;51.742;-1.256;2023-06-22T11:53:32;7;5;
62054;PMS5003;48653;51.742;-1.256;2023-06-22T11:55:58;9;8;
62054;PMS5003;48653;51.742;-1.256;2023-06-22T11:58:23;6;5;
62054;PMS5003;48653;51.742;-1.256;2023-06-22T12:00:48;6;6;
62054;PMS5003;48653;51.742;-1.256;2023-06-22T12:03:13;6;5;
62054;PMS5003;48653;51.742;-1.256;2023-06-22T12:05:39;6;5;
62054;PMS5003;48653;51.742;-1.256;2023-06-22T12:08:03;7;6;
62054;PMS5003;48653;51.742;-1.256;2023-06-22T12:10:28;3;3;
62054;PMS5003;48653;51.742;-1.256;2023-06-22T12:12:53;4;4;
62054;PMS5003;48653;51.742;-1.256;2023-06-22T12:15:18;6;6;
62054;PMS5003;48653;51.742;-1.256;2023-06-22T12:17:43;9;5;
62054;PMS5003;48653;51.742;-1.256;2023-06-22T12:20:09;7;6;
62054;PMS5003;48653;51.742;-1.256;2023-06-22T12:22:34;6;5;
62054;PMS5003;48653;51.742;-1.256;2023-06-22T12:24:59;7;6;
62054;PMS5003;48653;51.742;-1.256;2023-06-22T12:27:24;6;6;
62054;PMS5003;48653;51.742;-1.256;2023-06-22T12:29:49;7;7;
62054;PMS5003;48653;51.742;-1.256;2023-06-22T12:32:14;5;4;
62054;PMS5003;48653;51.742;-1.256;2023-06-22T12:37:04;5;5;
62054;PMS5003;48653;51.742;-1.256;2023-06-22T12:39:29;6;6;
62054;PMS5003;48653;51.742;-1.256;2023-06-22T12:41:54;5;5;
62054;PMS5003;48653;51.742;-1.256;2023-06-22T12:44:19;6;6;
62054;PMS5003;48653;51.742;-1.256;2023-06-22T12:46:44;6;6;
62054;PMS5003;48653;51.742;-1.256;2023-06-22T12:49:09;7;6;
62054;PMS5003;48653;51.742;-1.256;2023-06-22T12:51:38;5;5;
62054;PMS5003;48653;51.742;-1.256;2023-06-22T12:53:59;4;4;
62054;PMS5003;48653;51.742;-1.256;2023-06-22T12:56:24;4;3;
62054;PMS5003;48653;51.742;-1.256;2023-06-22T12:58:49;7;7;
62054;PMS5003;48653;51.742;-1.256;2023-06-22T13:01:14;4;4;
62054;PMS5003;48653;51.742;-1.256;2023-06-22T13:03:40;5;5;
62054;PMS5003;48653;51.742;-1.256;2023-06-22T13:06:04;7;5;
62054;PMS5003;48653;51.742;-1.256;2023-06-22T13:08:29;6;5;
62054;PMS5003;48653;51.742;-1.256;2023-06-22T13:10:54;3;3;
62054;PMS5003;48653;51.742;-1.256;2023-06-22T13:13:19;4;4;
62054;PMS5003;48653;51.742;-1.256;2023-06-22T13:15:44;4;4;
62054;PMS5003;48653;51.742;-1.256;2023-06-22T13:18:09;6;6;
62054;PMS5003;48653;51.742;-1.256;2023-06-22T13:20:36;5;5;
62054;PMS5003;48653;51.742;-1.256;2023-06-22T13:22:59;4;4;
62054;PMS5003;48653;51.742;-1.256;2023-06-22T13:25:24;6;6;
62054;PMS5003;48653;51.742;-1.256;2023-06-22T13:27:50;6;6;
62054;PMS5003;48653;51.742;-1.256;2023-06-22T13:30:15;8;5;
62054;PMS5003;48653;51.742;-1.256;2023-06-22T13:32:40;6;6;
62054;PMS5003;48653;51.742;-1.256;2023-06-22T13:35:05;6;5;
62054;PMS5003;48653;51.742;-1.256;2023-06-22T13:37:30;6;4;
62054;PMS5003;48653;51.742;-1.256;2023-06-22T13:39:56;4;4;
62054;PMS5003;48653;51.742;-1.256;2023-06-22T13:42:21;3;3;
62054;PMS5003;48653;51.742;-1.256;2023-06-22T13:44:45;5;5;
62054;PMS5003;48653;51.742;-1.256;2023-06-22T13:47:11;8;7;
62054;PMS5003;48653;51.742;-1.256;2023-06-22T13:49:36;7;5;
62054;PMS5003;48653;51.742;-1.256;2023-06-22T13:52:01;4;4;
62054;PMS5003;48653;51.742;-1.256;2023-06-22T13:54:26;5;5;
62054;PMS5003;48653;51.742;-1.256;2023-06-22T13:56:51;6;6;
62054;PMS5003;48653;51.742;-1.256;2023-06-22T13:59:16;5;5;
62054;PMS5003;48653;51.742;-1.256;2023-06-22T14:01:41;5;5;
62054;PMS5003;48653;51.742;-1.256;2023-06-22T14:04:06;5;5;
62054;PMS5003;48653;51.742;-1.256;2023-06-22T14:06:31;3;3;
62054;PMS5003;48653;51.742;-1.256;2023-06-22T14:08:56;5;4;
62054;PMS5003;48653;51.742;-1.256;2023-06-22T14:11:21;4;4;
62054;PMS5003;48653;51.742;-1.256;2023-06-22T14:13:46;6;5;
62054;PMS5003;48653;51.742;-1.256;2023-06-22T14:16:11;3;3;
62054;PMS5003;48653;51.742;-1.256;2023-06-22T14:18:36;5;5;
62054;PMS5003;48653;51.742;-1.256;2023-06-22T14:21:02;7;7;
62054;PMS5003;48653;51.742;-1.256;2023-06-22T14:23:27;7;7;
62054;PMS5003;48653;51.742;-1.256;2023-06-22T14:25:52;4;4;
62054;PMS5003;48653;51.742;-1.256;2023-06-22T14:28:17;6;4;
62054;PMS5003;48653;51.742;-1.256;2023-06-22T14:30:42;5;5;
62054;PMS5003;48653;51.742;-1.256;2023-06-22T14:33:07;7;5;
62054;PMS5003;48653;51.742;-1.256;2023-06-22T14:35:32;5;5;
62054;PMS5003;48653;51.742;-1.256;2023-06-22T14:37:57;5;5;
62054;PMS5003;48653;51.742;-1.256;2023-06-22T14:40:22;4;4;
62054;PMS5003;48653;51.742;-1.256;2023-06-22T14:42:47;5;5;
62054;PMS5003;48653;51.742;-1.256;2023-06-22T14:45:12;3;3;
62054;PMS5003;48653;51.742;-1.256;2023-06-22T14:47:37;6;6;
62054;PMS5003;48653;51.742;-1.256;2023-06-22T14:50:03;2;2;
62054;PMS5003;48653;51.742;-1.256;2023-06-22T14:52:27;4;4;
62054;PMS5003;48653;51.742;-1.256;2023-06-22T14:54:52;6;4;
62054;PMS5003;48653;51.742;-1.256;2023-06-22T14:57:18;6;5;
62054;PMS5003;48653;51.742;-1.256;2023-06-22T14:59:43;2;2;
62054;PMS5003;48653;51.742;-1.256;2023-06-22T15:02:08;3;3;
62054;PMS5003;48653;51.742;-1.256;2023-06-22T15:04:33;4;4;
62054;PMS5003;48653;51.742;-1.256;2023-06-22T15:06:58;6;5;
62054;PMS5003;48653;51.742;-1.256;2023-06-22T15:09:23;6;6;
62054;PMS5003;48653;51.742;-1.256;2023-06-22T15:11:48;5;5;
62054;PMS5003;48653;51.742;-1.256;2023-06-22T15:14:13;5;4;
62054;PMS5003;48653;51.742;-1.256;2023-06-22T15:16:38;6;6;
62054;PMS5003;48653;51.742;-1.256;2023-06-22T15:19:04;6;6;
62054;PMS5003;48653;51.742;-1.256;2023-06-22T15:21:29;9;8;
62054;PMS5003;48653;51.742;-1.256;2023-06-22T15:23:54;5;5;
62054;PMS5003;48653;51.742;-1.256;2023-06-22T15:26:19;10;8;
62054;PMS5003;48653;51.742;-1.256;2023-06-22T15:28:44;5;5;
62054;PMS5003;48653;51.742;-1.256;2023-06-22T15:31:09;4;4;
62054;PMS5003;48653;51.742;-1.256;2023-06-22T15:33:34;8;5;
62054;PMS5003;48653;51.742;-1.256;2023-06-22T15:35:59;5;5;
62054;PMS5003;48653;51.742;-1.256;2023-06-22T15:38:24;8;7;
62054;PMS5003;48653;51.742;-1.256;2023-06-22T15:40:50;10;9;
62054;PMS5003;48653;51.742;-1.256;2023-06-22T15:43:15;6;6;
62054;PMS5003;48653;51.742;-1.256;2023-06-22T15:45:40;6;6;
62054;PMS5003;48653;51.742;-1.256;2023-06-22T15:48:05;9;8;
62054;PMS5003;48653;51.742;-1.256;2023-06-22T15:50:30;7;6;
62054;PMS5003;48653;51.742;-1.256;2023-06-22T15:52:55;7;7;
62054;PMS5003;48653;51.742;-1.256;2023-06-22T15:55:20;7;7;
62054;PMS5003;48653;51.742;-1.256;2023-06-22T15:57:45;6;6;
62054;PMS5003;48653;51.742;-1.256;2023-06-22T16:00:14;7;6;
62054;PMS5003;48653;51.742;-1.256;2023-06-22T16:02:35;4;4;
62054;PMS5003;48653;51.742;-1.256;2023-06-22T16:05:00;3;3;
62054;PMS5003;48653;51.742;-1.256;2023-06-22T16:07:25;8;6;